sensor_id;sensor_type;location;lat;lon;timestamp;P1;durP1;ratioP1;P2;durP2;ratioP2
11931;SDS011;6025;51.368;6.788;2022-08-16T00:01:43;6.75;;;4.50;;
11931;SDS011;6025;51.368;6.788;2022-08-16T00:06:35;4.65;;;4.22;;
11931;SDS011;6025;51.368;6.788;2022-08-16T00:11:30;6.78;;;4.65;;
11931;SDS011;6025;51.368;6.788;2022-08-16T00:16:22;7.25;;;4.57;;
11931;SDS011;6025;51.368;6.788;2022-08-16T00:21:14;4.97;;;4.40;;
11931;SDS011;6025;51.368;6.788;2022-08-16T00:26:05;5.30;;;4.55;;
11931;SDS011;6025;51.368;6.788;2022-08-16T00:30:58;5.30;;;4.70;;
11931;SDS011;6025;51.368;6.788;2022-08-16T00:35:50;6.20;;;5.05;;
11931;SDS011;6025;51.368;6.788;2022-08-16T00:40:43;5.68;;;4.05;;
11931;SDS011;6025;51.368;6.788;2022-08-16T00:45:38;5.00;;;4.50;;
11931;SDS011;6025;51.368;6.788;2022-08-16T00:50:35;5.82;;;4.55;;
11931;SDS011;6025;51.368;6.788;2022-08-16T00:55:28;5.72;;;4.57;;
11931;SDS011;6025;51.368;6.788;2022-08-16T01:00:20;5.20;;;4.45;;
11931;SDS011;6025;51.368;6.788;2022-08-16T01:05:14;5.15;;;4.25;;
11931;SDS011;6025;51.368;6.788;2022-08-16T01:10:07;4.63;;;4.22;;
11931;SDS011;6025;51.368;6.788;2022-08-16T01:14:59;7.00;;;4.65;;
11931;SDS011;6025;51.368;6.788;2022-08-16T01:19:51;5.10;;;4.28;;
11931;SDS011;6025;51.368;6.788;2022-08-16T01:24:47;5.68;;;4.13;;
11931;SDS011;6025;51.368;6.788;2022-08-16T01:29:40;6.32;;;4.18;;
11931;SDS011;6025;51.368;6.788;2022-08-16T01:34:34;4.88;;;4.28;;
11931;SDS011;6025;51.368;6.788;2022-08-16T01:39:27;8.27;;;4.22;;
11931;SDS011;6025;51.368;6.788;2022-08-16T01:44:20;9.68;;;4.10;;
11931;SDS011;6025;51.368;6.788;2022-08-16T01:49:15;5.57;;;3.85;;
11931;SDS011;6025;51.368;6.788;2022-08-16T01:54:09;4.90;;;3.90;;
11931;SDS011;6025;51.368;6.788;2022-08-16T01:59:01;5.85;;;3.88;;
11931;SDS011;6025;51.368;6.788;2022-08-16T02:03:56;6.20;;;4.10;;
11931;SDS011;6025;51.368;6.788;2022-08-16T02:08:48;6.15;;;4.00;;
11931;SDS011;6025;51.368;6.788;2022-08-16T02:13:40;4.32;;;3.92;;
11931;SDS011;6025;51.368;6.788;2022-08-16T02:18:31;6.22;;;4.40;;
11931;SDS011;6025;51.368;6.788;2022-08-16T02:23:24;5.82;;;4.30;;
11931;SDS011;6025;51.368;6.788;2022-08-16T02:28:16;6.10;;;4.03;;
11931;SDS011;6025;51.368;6.788;2022-08-16T02:33:08;5.63;;;4.10;;
11931;SDS011;6025;51.368;6.788;2022-08-16T02:38:01;5.97;;;4.10;;
11931;SDS011;6025;51.368;6.788;2022-08-16T02:42:54;5.65;;;3.78;;
11931;SDS011;6025;51.368;6.788;2022-08-16T02:47:46;5.03;;;4.25;;
11931;SDS011;6025;51.368;6.788;2022-08-16T02:52:37;5.22;;;4.38;;
11931;SDS011;6025;51.368;6.788;2022-08-16T02:57:29;6.90;;;4.65;;
11931;SDS011;6025;51.368;6.788;2022-08-16T03:02:22;6.40;;;4.57;;
11931;SDS011;6025;51.368;6.788;2022-08-16T03:07:14;7.20;;;4.10;;
11931;SDS011;6025;51.368;6.788;2022-08-16T03:12:06;6.30;;;4.68;;
11931;SDS011;6025;51.368;6.788;2022-08-16T03:16:58;5.88;;;4.50;;
11931;SDS011;6025;51.368;6.788;2022-08-16T03:21:51;8.25;;;4.68;;
11931;SDS011;6025;51.368;6.788;2022-08-16T03:26:43;6.38;;;4.60;;
11931;SDS011;6025;51.368;6.788;2022-08-16T03:31:35;9.13;;;4.90;;
11931;SDS011;6025;51.368;6.788;2022-08-16T03:36:26;8.20;;;5.18;;
11931;SDS011;6025;51.368;6.788;2022-08-16T03:41:19;8.82;;;4.93;;
11931;SDS011;6025;51.368;6.788;2022-08-16T03:46:11;5.22;;;4.72;;
11931;SDS011;6025;51.368;6.788;2022-08-16T03:51:03;7.18;;;4.88;;
11931;SDS011;6025;51.368;6.788;2022-08-16T03:55:57;6.90;;;4.90;;
11931;SDS011;6025;51.368;6.788;2022-08-16T04:00:49;7.80;;;4.85;;
11931;SDS011;6025;51.368;6.788;2022-08-16T04:05:45;6.30;;;5.00;;
11931;SDS011;6025;51.368;6.788;2022-08-16T04:10:38;6.75;;;4.57;;
11931;SDS011;6025;51.368;6.788;2022-08-16T04:15:29;5.65;;;4.88;;
11931;SDS011;6025;51.368;6.788;2022-08-16T04:20:23;8.18;;;4.90;;
11931;SDS011;6025;51.368;6.788;2022-08-16T04:25:15;7.10;;;4.65;;
11931;SDS011;6025;51.368;6.788;2022-08-16T04:30:09;8.07;;;4.72;;
11931;SDS011;6025;51.368;6.788;2022-08-16T04:35:03;11.07;;;5.40;;
11931;SDS011;6025;51.368;6.788;2022-08-16T04:39:56;7.00;;;5.13;;
11931;SDS011;6025;51.368;6.788;2022-08-16T04:44:48;9.23;;;4.70;;
11931;SDS011;6025;51.368;6.788;2022-08-16T04:49:39;7.20;;;4.38;;
11931;SDS011;6025;51.368;6.788;2022-08-16T04:54:31;7.28;;;4.88;;
11931;SDS011;6025;51.368;6.788;2022-08-16T04:59:24;5.47;;;4.90;;
11931;SDS011;6025;51.368;6.788;2022-08-16T05:04:16;6.68;;;5.13;;
11931;SDS011;6025;51.368;6.788;2022-08-16T05:09:07;6.47;;;4.68;;
11931;SDS011;6025;51.368;6.788;2022-08-16T05:13:59;6.40;;;4.82;;
11931;SDS011;6025;51.368;6.788;2022-08-16T05:18:53;6.15;;;4.50;;
11931;SDS011;6025;51.368;6.788;2022-08-16T05:23:45;7.57;;;4.97;;
11931;SDS011;6025;51.368;6.788;2022-08-16T05:28:36;5.57;;;4.50;;
11931;SDS011;6025;51.368;6.788;2022-08-16T05:33:28;5.63;;;4.80;;
11931;SDS011;6025;51.368;6.788;2022-08-16T05:38:22;5.18;;;4.20;;
11931;SDS011;6025;51.368;6.788;2022-08-16T05:43:16;6.47;;;4.78;;
11931;SDS011;6025;51.368;6.788;2022-08-16T05:48:08;8.20;;;4.25;;
11931;SDS011;6025;51.368;6.788;2022-08-16T05:52:59;5.72;;;4.45;;
11931;SDS011;6025;51.368;6.788;2022-08-16T05:57:53;4.97;;;4.40;;
11931;SDS011;6025;51.368;6.788;2022-08-16T06:02:44;6.35;;;4.00;;
11931;SDS011;6025;51.368;6.788;2022-08-16T06:07:36;6.60;;;5.18;;
11931;SDS011;6025;51.368;6.788;2022-08-16T06:12:28;6.78;;;5.00;;
11931;SDS011;6025;51.368;6.788;2022-08-16T06:17:21;6.47;;;4.88;;
11931;SDS011;6025;51.368;6.788;2022-08-16T06:22:13;9.23;;;4.88;;
11931;SDS011;6025;51.368;6.788;2022-08-16T06:27:05;9.65;;;5.05;;
11931;SDS011;6025;51.368;6.788;2022-08-16T06:31:57;8.40;;;5.40;;
11931;SDS011;6025;51.368;6.788;2022-08-16T06:36:49;8.65;;;5.43;;
11931;SDS011;6025;51.368;6.788;2022-08-16T06:41:41;7.32;;;5.35;;
11931;SDS011;6025;51.368;6.788;2022-08-16T06:46:33;12.30;;;5.82;;
11931;SDS011;6025;51.368;6.788;2022-08-16T06:51:26;8.85;;;5.97;;
11931;SDS011;6025;51.368;6.788;2022-08-16T06:56:19;8.68;;;5.22;;
11931;SDS011;6025;51.368;6.788;2022-08-16T07:01:11;7.88;;;5.65;;
11931;SDS011;6025;51.368;6.788;2022-08-16T07:06:03;6.65;;;5.53;;
11931;SDS011;6025;51.368;6.788;2022-08-16T07:10:55;19.30;;;7.72;;
11931;SDS011;6025;51.368;6.788;2022-08-16T07:15:49;10.10;;;5.75;;
11931;SDS011;6025;51.368;6.788;2022-08-16T07:20:41;8.80;;;7.93;;
11931;SDS011;6025;51.368;6.788;2022-08-16T07:25:33;9.50;;;6.70;;
11931;SDS011;6025;51.368;6.788;2022-08-16T07:30:26;12.07;;;6.82;;
11931;SDS011;6025;51.368;6.788;2022-08-16T07:35:19;9.32;;;6.55;;
11931;SDS011;6025;51.368;6.788;2022-08-16T07:40:11;9.57;;;7.20;;
11931;SDS011;6025;51.368;6.788;2022-08-16T07:45:04;18.25;;;7.60;;
11931;SDS011;6025;51.368;6.788;2022-08-16T07:49:57;11.02;;;6.50;;
11931;SDS011;6025;51.368;6.788;2022-08-16T07:54:50;11.48;;;6.70;;
11931;SDS011;6025;51.368;6.788;2022-08-16T07:59:42;10.88;;;6.35;;
11931;SDS011;6025;51.368;6.788;2022-08-16T08:04:33;14.60;;;8.00;;
11931;SDS011;6025;51.368;6.788;2022-08-16T08:09:25;10.65;;;6.57;;
11931;SDS011;6025;51.368;6.788;2022-08-16T08:14:18;10.13;;;6.63;;
11931;SDS011;6025;51.368;6.788;2022-08-16T08:19:10;9.65;;;6.00;;
11931;SDS011;6025;51.368;6.788;2022-08-16T08:24:02;9.05;;;7.20;;
11931;SDS011;6025;51.368;6.788;2022-08-16T08:28:54;8.82;;;6.30;;
11931;SDS011;6025;51.368;6.788;2022-08-16T08:33:47;10.07;;;7.20;;
11931;SDS011;6025;51.368;6.788;2022-08-16T08:38:38;10.30;;;6.65;;
11931;SDS011;6025;51.368;6.788;2022-08-16T08:43:30;12.27;;;7.78;;
11931;SDS011;6025;51.368;6.788;2022-08-16T08:48:22;14.18;;;7.15;;
11931;SDS011;6025;51.368;6.788;2022-08-16T08:53:15;11.77;;;6.80;;
11931;SDS011;6025;51.368;6.788;2022-08-16T08:58:07;10.40;;;7.10;;
11931;SDS011;6025;51.368;6.788;2022-08-16T09:02:58;12.00;;;6.40;;
11931;SDS011;6025;51.368;6.788;2022-08-16T09:07:50;7.43;;;6.05;;
11931;SDS011;6025;51.368;6.788;2022-08-16T09:12:44;9.80;;;6.50;;
11931;SDS011;6025;51.368;6.788;2022-08-16T09:17:36;7.07;;;6.07;;
11931;SDS011;6025;51.368;6.788;2022-08-16T09:22:28;8.80;;;5.65;;
11931;SDS011;6025;51.368;6.788;2022-08-16T09:27:20;8.23;;;6.32;;
11931;SDS011;6025;51.368;6.788;2022-08-16T09:32:13;8.40;;;5.43;;
11931;SDS011;6025;51.368;6.788;2022-08-16T09:37:06;7.55;;;6.07;;
11931;SDS011;6025;51.368;6.788;2022-08-16T09:41:57;6.57;;;5.05;;
11931;SDS011;6025;51.368;6.788;2022-08-16T09:46:49;10.55;;;5.50;;
11931;SDS011;6025;51.368;6.788;2022-08-16T09:51:42;6.95;;;4.90;;
11931;SDS011;6025;51.368;6.788;2022-08-16T09:56:34;7.93;;;4.70;;
11931;SDS011;6025;51.368;6.788;2022-08-16T10:01:26;9.35;;;6.22;;
11931;SDS011;6025;51.368;6.788;2022-08-16T10:06:18;6.25;;;5.30;;
11931;SDS011;6025;51.368;6.788;2022-08-16T10:11:12;8.07;;;5.70;;
11931;SDS011;6025;51.368;6.788;2022-08-16T10:16:21;9.18;;;5.25;;
11931;SDS011;6025;51.368;6.788;2022-08-16T10:21:12;12.68;;;5.97;;
11931;SDS011;6025;51.368;6.788;2022-08-16T10:26:05;7.75;;;4.88;;
11931;SDS011;6025;51.368;6.788;2022-08-16T10:30:59;12.40;;;5.68;;
11931;SDS011;6025;51.368;6.788;2022-08-16T10:35:51;10.02;;;4.30;;
11931;SDS011;6025;51.368;6.788;2022-08-16T10:40:43;11.52;;;5.07;;
11931;SDS011;6025;51.368;6.788;2022-08-16T10:45:35;7.18;;;5.15;;
11931;SDS011;6025;51.368;6.788;2022-08-16T10:50:28;8.43;;;4.47;;
11931;SDS011;6025;51.368;6.788;2022-08-16T10:55:19;9.48;;;4.45;;
11931;SDS011;6025;51.368;6.788;2022-08-16T11:00:12;8.63;;;4.15;;
11931;SDS011;6025;51.368;6.788;2022-08-16T11:05:06;5.55;;;3.92;;
11931;SDS011;6025;51.368;6.788;2022-08-16T11:10:03;10.40;;;4.32;;
11931;SDS011;6025;51.368;6.788;2022-08-16T11:14:55;9.60;;;4.30;;
11931;SDS011;6025;51.368;6.788;2022-08-16T11:19:47;7.05;;;3.90;;
11931;SDS011;6025;51.368;6.788;2022-08-16T11:24:39;7.95;;;4.20;;
11931;SDS011;6025;51.368;6.788;2022-08-16T11:29:33;5.60;;;3.75;;
11931;SDS011;6025;51.368;6.788;2022-08-16T11:34:25;8.02;;;3.90;;
11931;SDS011;6025;51.368;6.788;2022-08-16T11:39:16;5.00;;;3.67;;
11931;SDS011;6025;51.368;6.788;2022-08-16T11:44:08;6.72;;;3.90;;
11931;SDS011;6025;51.368;6.788;2022-08-16T11:49:02;5.32;;;3.90;;
11931;SDS011;6025;51.368;6.788;2022-08-16T11:53:54;6.97;;;3.90;;
11931;SDS011;6025;51.368;6.788;2022-08-16T11:58:46;6.53;;;3.80;;
11931;SDS011;6025;51.368;6.788;2022-08-16T12:03:38;10.25;;;4.05;;
11931;SDS011;6025;51.368;6.788;2022-08-16T12:08:31;12.43;;;3.80;;
11931;SDS011;6025;51.368;6.788;2022-08-16T12:13:22;7.72;;;3.90;;
11931;SDS011;6025;51.368;6.788;2022-08-16T12:18:14;8.43;;;4.10;;
11931;SDS011;6025;51.368;6.788;2022-08-16T12:23:06;8.93;;;3.67;;
11931;SDS011;6025;51.368;6.788;2022-08-16T12:28:01;8.52;;;3.33;;
11931;SDS011;6025;51.368;6.788;2022-08-16T12:32:53;7.78;;;3.85;;
11931;SDS011;6025;51.368;6.788;2022-08-16T12:37:45;10.32;;;3.72;;
11931;SDS011;6025;51.368;6.788;2022-08-16T12:42:37;7.47;;;3.97;;
11931;SDS011;6025;51.368;6.788;2022-08-16T12:47:30;10.82;;;4.95;;
11931;SDS011;6025;51.368;6.788;2022-08-16T12:52:39;12.02;;;4.18;;
11931;SDS011;6025;51.368;6.788;2022-08-16T12:57:31;10.00;;;4.30;;
11931;SDS011;6025;51.368;6.788;2022-08-16T13:02:22;6.95;;;3.78;;
11931;SDS011;6025;51.368;6.788;2022-08-16T13:07:15;5.22;;;4.00;;
11931;SDS011;6025;51.368;6.788;2022-08-16T13:12:09;8.90;;;3.60;;
11931;SDS011;6025;51.368;6.788;2022-08-16T13:17:09;4.40;;;3.50;;
11931;SDS011;6025;51.368;6.788;2022-08-16T13:22:02;5.85;;;4.00;;
11931;SDS011;6025;51.368;6.788;2022-08-16T13:26:55;10.05;;;3.90;;
11931;SDS011;6025;51.368;6.788;2022-08-16T13:31:47;5.40;;;3.80;;
11931;SDS011;6025;51.368;6.788;2022-08-16T13:36:39;9.20;;;4.18;;
11931;SDS011;6025;51.368;6.788;2022-08-16T13:41:30;10.63;;;5.30;;
11931;SDS011;6025;51.368;6.788;2022-08-16T13:46:23;11.40;;;3.83;;
11931;SDS011;6025;51.368;6.788;2022-08-16T13:51:15;5.88;;;3.60;;
11931;SDS011;6025;51.368;6.788;2022-08-16T13:56:08;9.85;;;4.35;;
11931;SDS011;6025;51.368;6.788;2022-08-16T14:01:00;5.68;;;5.10;;
11931;SDS011;6025;51.368;6.788;2022-08-16T14:05:53;10.93;;;5.78;;
11931;SDS011;6025;51.368;6.788;2022-08-16T14:10:45;8.05;;;4.45;;
11931;SDS011;6025;51.368;6.788;2022-08-16T14:15:37;7.22;;;4.38;;
11931;SDS011;6025;51.368;6.788;2022-08-16T14:20:28;9.48;;;4.57;;
11931;SDS011;6025;51.368;6.788;2022-08-16T14:25:23;7.60;;;4.80;;
11931;SDS011;6025;51.368;6.788;2022-08-16T14:30:16;4.93;;;4.03;;
11931;SDS011;6025;51.368;6.788;2022-08-16T14:35:10;8.20;;;4.10;;
11931;SDS011;6025;51.368;6.788;2022-08-16T14:40:05;8.50;;;3.80;;
11931;SDS011;6025;51.368;6.788;2022-08-16T14:44:59;5.40;;;3.55;;
11931;SDS011;6025;51.368;6.788;2022-08-16T14:49:50;6.25;;;4.30;;
11931;SDS011;6025;51.368;6.788;2022-08-16T14:54:42;6.18;;;3.80;;
11931;SDS011;6025;51.368;6.788;2022-08-16T14:59:35;5.43;;;3.80;;
11931;SDS011;6025;51.368;6.788;2022-08-16T15:04:28;6.30;;;4.07;;
11931;SDS011;6025;51.368;6.788;2022-08-16T15:09:21;7.53;;;3.97;;
11931;SDS011;6025;51.368;6.788;2022-08-16T15:14:13;5.53;;;3.90;;
11931;SDS011;6025;51.368;6.788;2022-08-16T15:19:04;5.10;;;3.70;;
11931;SDS011;6025;51.368;6.788;2022-08-16T15:23:57;3.85;;;3.30;;
11931;SDS011;6025;51.368;6.788;2022-08-16T15:28:49;4.13;;;3.50;;
11931;SDS011;6025;51.368;6.788;2022-08-16T15:33:42;9.45;;;8.00;;
11931;SDS011;6025;51.368;6.788;2022-08-16T15:38:36;6.82;;;3.78;;
11931;SDS011;6025;51.368;6.788;2022-08-16T15:43:29;5.47;;;3.60;;
11931;SDS011;6025;51.368;6.788;2022-08-16T15:48:21;4.70;;;3.88;;
11931;SDS011;6025;51.368;6.788;2022-08-16T15:53:14;7.85;;;5.70;;
11931;SDS011;6025;51.368;6.788;2022-08-16T15:58:08;6.07;;;5.00;;
11931;SDS011;6025;51.368;6.788;2022-08-16T16:03:03;6.70;;;4.20;;
11931;SDS011;6025;51.368;6.788;2022-08-16T16:07:56;5.40;;;3.90;;
11931;SDS011;6025;51.368;6.788;2022-08-16T16:12:50;5.63;;;3.70;;
11931;SDS011;6025;51.368;6.788;2022-08-16T16:17:43;7.18;;;4.03;;
11931;SDS011;6025;51.368;6.788;2022-08-16T16:22:36;6.65;;;4.10;;
11931;SDS011;6025;51.368;6.788;2022-08-16T16:27:27;8.23;;;4.22;;
11931;SDS011;6025;51.368;6.788;2022-08-16T16:32:19;7.13;;;4.00;;
11931;SDS011;6025;51.368;6.788;2022-08-16T16:37:10;7.32;;;4.10;;
11931;SDS011;6025;51.368;6.788;2022-08-16T16:42:04;5.90;;;3.67;;
11931;SDS011;6025;51.368;6.788;2022-08-16T16:46:55;4.93;;;3.50;;
11931;SDS011;6025;51.368;6.788;2022-08-16T16:51:47;9.02;;;4.30;;
11931;SDS011;6025;51.368;6.788;2022-08-16T16:56:39;5.93;;;3.65;;
11931;SDS011;6025;51.368;6.788;2022-08-16T17:01:33;5.38;;;3.60;;
11931;SDS011;6025;51.368;6.788;2022-08-16T17:06:27;9.02;;;3.80;;
11931;SDS011;6025;51.368;6.788;2022-08-16T17:11:19;5.57;;;3.30;;
11931;SDS011;6025;51.368;6.788;2022-08-16T17:16:12;4.85;;;3.45;;
11931;SDS011;6025;51.368;6.788;2022-08-16T17:21:05;7.90;;;3.70;;
11931;SDS011;6025;51.368;6.788;2022-08-16T17:25:57;5.65;;;3.58;;
11931;SDS011;6025;51.368;6.788;2022-08-16T17:30:49;7.15;;;4.15;;
11931;SDS011;6025;51.368;6.788;2022-08-16T17:35:41;6.10;;;4.38;;
11931;SDS011;6025;51.368;6.788;2022-08-16T17:40:38;11.13;;;9.85;;
11931;SDS011;6025;51.368;6.788;2022-08-16T17:45:32;7.95;;;4.38;;
11931;SDS011;6025;51.368;6.788;2022-08-16T17:50:24;9.20;;;4.65;;
11931;SDS011;6025;51.368;6.788;2022-08-16T17:55:19;5.72;;;4.72;;
11931;SDS011;6025;51.368;6.788;2022-08-16T18:00:13;5.88;;;4.13;;
11931;SDS011;6025;51.368;6.788;2022-08-16T18:05:05;9.45;;;4.45;;
11931;SDS011;6025;51.368;6.788;2022-08-16T18:10:01;4.75;;;4.15;;
11931;SDS011;6025;51.368;6.788;2022-08-16T18:14:54;7.95;;;4.07;;
11931;SDS011;6025;51.368;6.788;2022-08-16T18:19:47;7.13;;;4.30;;
11931;SDS011;6025;51.368;6.788;2022-08-16T18:24:38;8.27;;;4.03;;
11931;SDS011;6025;51.368;6.788;2022-08-16T18:29:30;6.90;;;3.97;;
11931;SDS011;6025;51.368;6.788;2022-08-16T18:34:22;4.43;;;4.03;;
11931;SDS011;6025;51.368;6.788;2022-08-16T18:39:15;4.90;;;4.18;;
11931;SDS011;6025;51.368;6.788;2022-08-16T18:44:06;13.68;;;4.97;;
11931;SDS011;6025;51.368;6.788;2022-08-16T18:49:00;7.65;;;4.65;;
11931;SDS011;6025;51.368;6.788;2022-08-16T18:53:52;9.70;;;3.97;;
11931;SDS011;6025;51.368;6.788;2022-08-16T18:58:45;11.23;;;4.55;;
11931;SDS011;6025;51.368;6.788;2022-08-16T19:03:37;5.32;;;3.80;;
11931;SDS011;6025;51.368;6.788;2022-08-16T19:08:28;8.57;;;4.20;;
11931;SDS011;6025;51.368;6.788;2022-08-16T19:13:21;7.18;;;3.92;;
11931;SDS011;6025;51.368;6.788;2022-08-16T19:18:15;7.32;;;4.47;;
11931;SDS011;6025;51.368;6.788;2022-08-16T19:23:09;6.13;;;4.03;;
11931;SDS011;6025;51.368;6.788;2022-08-16T19:28:01;7.32;;;4.97;;
11931;SDS011;6025;51.368;6.788;2022-08-16T19:32:53;6.47;;;4.63;;
11931;SDS011;6025;51.368;6.788;2022-08-16T19:37:46;8.68;;;4.93;;
11931;SDS011;6025;51.368;6.788;2022-08-16T19:42:39;6.45;;;4.63;;
11931;SDS011;6025;51.368;6.788;2022-08-16T19:47:34;6.65;;;4.45;;
11931;SDS011;6025;51.368;6.788;2022-08-16T19:52:28;6.28;;;4.57;;
11931;SDS011;6025;51.368;6.788;2022-08-16T19:57:22;7.00;;;4.10;;
11931;SDS011;6025;51.368;6.788;2022-08-16T20:02:14;8.85;;;4.32;;
11931;SDS011;6025;51.368;6.788;2022-08-16T20:07:08;8.85;;;4.30;;
11931;SDS011;6025;51.368;6.788;2022-08-16T20:12:03;4.97;;;4.43;;
11931;SDS011;6025;51.368;6.788;2022-08-16T20:16:58;5.85;;;4.25;;
11931;SDS011;6025;51.368;6.788;2022-08-16T20:21:50;10.45;;;4.50;;
11931;SDS011;6025;51.368;6.788;2022-08-16T20:26:41;7.03;;;4.20;;
11931;SDS011;6025;51.368;6.788;2022-08-16T20:31:33;5.53;;;4.68;;
11931;SDS011;6025;51.368;6.788;2022-08-16T20:36:26;7.32;;;4.65;;
11931;SDS011;6025;51.368;6.788;2022-08-16T20:41:18;9.73;;;4.65;;
11931;SDS011;6025;51.368;6.788;2022-08-16T20:46:10;7.15;;;4.53;;
11931;SDS011;6025;51.368;6.788;2022-08-16T20:51:01;5.43;;;4.78;;
11931;SDS011;6025;51.368;6.788;2022-08-16T20:55:57;8.38;;;4.47;;
11931;SDS011;6025;51.368;6.788;2022-08-16T21:00:48;9.57;;;4.72;;
11931;SDS011;6025;51.368;6.788;2022-08-16T21:05:40;5.70;;;4.38;;
11931;SDS011;6025;51.368;6.788;2022-08-16T21:10:34;6.85;;;4.60;;
11931;SDS011;6025;51.368;6.788;2022-08-16T21:15:27;7.45;;;4.72;;
11931;SDS011;6025;51.368;6.788;2022-08-16T21:20:20;6.25;;;4.22;;
11931;SDS011;6025;51.368;6.788;2022-08-16T21:25:14;6.85;;;4.53;;
11931;SDS011;6025;51.368;6.788;2022-08-16T21:30:06;5.10;;;4.38;;
11931;SDS011;6025;51.368;6.788;2022-08-16T21:34:59;5.00;;;4.50;;
11931;SDS011;6025;51.368;6.788;2022-08-16T21:39:55;6.75;;;4.45;;
11931;SDS011;6025;51.368;6.788;2022-08-16T21:44:47;7.07;;;5.13;;
11931;SDS011;6025;51.368;6.788;2022-08-16T21:49:38;5.10;;;4.32;;
11931;SDS011;6025;51.368;6.788;2022-08-16T21:54:31;5.90;;;4.55;;
11931;SDS011;6025;51.368;6.788;2022-08-16T21:59:23;7.47;;;4.68;;
11931;SDS011;6025;51.368;6.788;2022-08-16T22:04:14;5.75;;;4.70;;
11931;SDS011;6025;51.368;6.788;2022-08-16T22:09:06;6.40;;;4.65;;
11931;SDS011;6025;51.368;6.788;2022-08-16T22:14:00;8.32;;;5.18;;
11931;SDS011;6025;51.368;6.788;2022-08-16T22:18:53;8.40;;;5.13;;
11931;SDS011;6025;51.368;6.788;2022-08-16T22:23:45;8.07;;;5.00;;
11931;SDS011;6025;51.368;6.788;2022-08-16T22:28:36;5.30;;;4.72;;
11931;SDS011;6025;51.368;6.788;2022-08-16T22:33:29;5.38;;;4.88;;
11931;SDS011;6025;51.368;6.788;2022-08-16T22:38:21;6.80;;;4.63;;
11931;SDS011;6025;51.368;6.788;2022-08-16T22:43:13;5.72;;;5.20;;
11931;SDS011;6025;51.368;6.788;2022-08-16T22:48:06;6.80;;;5.22;;
11931;SDS011;6025;51.368;6.788;2022-08-16T22:52:59;9.23;;;5.50;;
11931;SDS011;6025;51.368;6.788;2022-08-16T22:57:52;5.85;;;4.80;;
11931;SDS011;6025;51.368;6.788;2022-08-16T23:02:53;5.50;;;4.95;;
11931;SDS011;6025;51.368;6.788;2022-08-16T23:07:46;7.47;;;5.60;;
11931;SDS011;6025;51.368;6.788;2022-08-16T23:12:46;5.90;;;5.00;;
11931;SDS011;6025;51.368;6.788;2022-08-16T23:17:38;8.32;;;5.68;;
11931;SDS011;6025;51.368;6.788;2022-08-16T23:22:38;7.88;;;5.78;;
11931;SDS011;6025;51.368;6.788;2022-08-16T23:27:30;6.32;;;5.18;;
11931;SDS011;6025;51.368;6.788;2022-08-16T23:32:23;7.95;;;5.30;;
11931;SDS011;6025;51.368;6.788;2022-08-16T23:37:15;6.00;;;5.50;;
11931;SDS011;6025;51.368;6.788;2022-08-16T23:42:09;7.80;;;5.63;;
11931;SDS011;6025;51.368;6.788;2022-08-16T23:47:02;7.15;;;5.55;;
11931;SDS011;6025;51.368;6.788;2022-08-16T23:51:56;9.15;;;5.82;;
11931;SDS011;6025;51.368;6.788;2022-08-16T23:56:48;6.47;;;5.50;;
